createdAt,value
2022-10-09T00:00:00.322Z,1012.1
2022-10-09T00:01:15.638Z,1012.1
2022-10-09T00:02:31.930Z,1012.2
2022-10-09T00:03:48.230Z,1012.1
2022-10-09T00:05:04.524Z,1012.1
2022-10-09T00:06:20.805Z,1012.2
2022-10-09T00:07:37.103Z,1012.1
2022-10-09T00:08:53.405Z,1012.2
2022-10-09T00:10:09.702Z,1012.2
2022-10-09T00:11:25.985Z,1012.2
2022-10-09T00:12:42.287Z,1012.2
2022-10-09T00:13:58.567Z,1012.2
2022-10-09T00:15:14.875Z,1012.2
2022-10-09T00:16:31.159Z,1012.2
2022-10-09T00:17:46.471Z,1012.2
2022-10-09T00:19:02.771Z,1012.2
2022-10-09T00:20:19.054Z,1012.2
2022-10-09T00:21:35.352Z,1012.2
2022-10-09T00:22:51.655Z,1012.2
2022-10-09T00:24:07.940Z,1012.2
2022-10-09T00:25:23.268Z,1012.3
2022-10-09T00:26:39.558Z,1012.2
2022-10-09T00:27:55.860Z,1012.2
2022-10-09T00:29:12.149Z,1012.2
2022-10-09T00:30:28.449Z,1012.2
2022-10-09T00:31:44.738Z,1012.2
2022-10-09T00:33:01.019Z,1012.3
2022-10-09T00:34:17.311Z,1012.2
2022-10-09T00:35:33.622Z,1012.3
2022-10-09T00:36:49.900Z,1012.3
2022-10-09T00:38:06.201Z,1012.3
2022-10-09T00:39:22.494Z,1012.3
2022-10-09T00:40:38.791Z,1012.3
2022-10-09T00:41:54.093Z,1012.2
2022-10-09T00:43:10.404Z,1012.2
2022-10-09T00:44:26.693Z,1012.2
2022-10-09T00:45:42.982Z,1012.3
2022-10-09T00:46:59.279Z,1012.3
2022-10-09T00:48:15.571Z,1012.3
2022-10-09T00:49:31.859Z,1012.3
2022-10-09T00:50:48.173Z,1012.3
2022-10-09T00:52:04.477Z,1012.3
2022-10-09T00:53:20.751Z,1012.3
2022-10-09T00:54:37.048Z,1012.3
2022-10-09T00:55:53.336Z,1012.3
2022-10-09T00:57:09.643Z,1012.3
2022-10-09T00:58:24.956Z,1012.3
2022-10-09T00:59:41.232Z,1012.4
2022-10-09T01:00:57.525Z,1012.3
2022-10-09T01:02:13.826Z,1012.3
2022-10-09T01:03:30.128Z,1012.3
2022-10-09T01:04:46.417Z,1012.3
2022-10-09T01:06:02.703Z,1012.3
2022-10-09T01:07:19.015Z,1012.3
2022-10-09T01:08:35.298Z,1012.3
2022-10-09T01:09:51.596Z,1012.3
2022-10-09T01:11:07.897Z,1012.3
2022-10-09T01:12:24.180Z,1012.3
2022-10-09T01:13:40.482Z,1012.3
2022-10-09T01:14:55.800Z,1012.3
2022-10-09T01:16:12.089Z,1012.3
2022-10-09T01:17:28.370Z,1012.3
2022-10-09T01:18:44.679Z,1012.3
2022-10-09T01:20:00.960Z,1012.3
2022-10-09T01:21:17.262Z,1012.3
2022-10-09T01:22:33.000Z,1012.4
2022-10-09T01:23:49.840Z,1012.3
2022-10-09T01:25:06.145Z,1012.4
2022-10-09T01:26:22.431Z,1012.4
2022-10-09T01:27:38.736Z,1012.4
2022-10-09T01:28:55.024Z,1012.4
2022-10-09T01:30:11.321Z,1012.4
2022-10-09T01:31:26.640Z,1012.4
2022-10-09T01:32:42.926Z,1012.4
2022-10-09T01:33:59.226Z,1012.4
2022-10-09T01:35:15.510Z,1012.4
2022-10-09T01:36:31.808Z,1012.4
2022-10-09T01:37:48.108Z,1012.4
2022-10-09T01:39:04.404Z,1012.4
2022-10-09T01:40:20.681Z,1012.4
2022-10-09T01:41:36.992Z,1012.4
2022-10-09T01:42:53.281Z,1012.4
2022-10-09T01:44:09.584Z,1012.5
2022-10-09T01:45:25.878Z,1012.5
2022-10-09T01:46:42.167Z,1012.5
2022-10-09T01:47:57.484Z,1012.5
2022-10-09T01:49:13.775Z,1012.5
2022-10-09T01:50:30.068Z,1012.5
2022-10-09T01:51:46.356Z,1012.6
2022-10-09T01:53:02.657Z,1012.5
2022-10-09T01:54:18.949Z,1012.6
2022-10-09T01:55:35.252Z,1012.5
2022-10-09T01:56:51.542Z,1012.6
2022-10-09T01:58:07.837Z,1012.5
2022-10-09T01:59:24.151Z,1012.5
2022-10-09T02:00:40.422Z,1012.5
2022-10-09T02:01:56.709Z,1012.5
2022-10-09T02:03:13.009Z,1012.5
2022-10-09T02:04:28.317Z,1012.5
2022-10-09T02:05:44.609Z,1012.5
2022-10-09T02:07:00.908Z,1012.5
2022-10-09T02:08:17.209Z,1012.5
2022-10-09T02:09:33.502Z,1012.5
2022-10-09T02:10:49.786Z,1012.5
2022-10-09T02:12:06.076Z,1012.5
2022-10-09T02:13:22.367Z,1012.6
2022-10-09T02:14:38.669Z,1012.6
2022-10-09T02:15:54.973Z,1012.6
2022-10-09T02:17:11.257Z,1012.6
2022-10-09T02:18:27.550Z,1012.6
2022-10-09T02:19:43.851Z,1012.5
2022-10-09T02:20:59.153Z,1012.5
2022-10-09T02:22:15.457Z,1012.5
2022-10-09T02:23:31.755Z,1012.6
2022-10-09T02:24:48.033Z,1012.5
2022-10-09T02:26:04.343Z,1012.6
2022-10-09T02:27:20.642Z,1012.6
2022-10-09T02:28:36.917Z,1012.6
2022-10-09T02:29:53.218Z,1012.6
2022-10-09T02:31:09.521Z,1012.6
2022-10-09T02:32:25.821Z,1012.6
2022-10-09T02:33:42.095Z,1012.5
2022-10-09T02:34:58.404Z,1012.6
2022-10-09T02:36:14.695Z,1012.6
2022-10-09T02:37:30.001Z,1012.6
2022-10-09T02:38:46.291Z,1012.6
2022-10-09T02:40:02.595Z,1012.6
2022-10-09T02:41:18.887Z,1012.7
2022-10-09T02:42:35.176Z,1012.6
2022-10-09T02:43:51.487Z,1012.6
2022-10-09T02:45:07.781Z,1012.6
2022-10-09T02:46:24.065Z,1012.7
2022-10-09T02:47:40.357Z,1012.7
2022-10-09T02:48:56.661Z,1012.7
2022-10-09T02:50:12.947Z,1012.7
2022-10-09T02:51:29.241Z,1012.7
2022-10-09T02:52:45.530Z,1012.8
2022-10-09T02:54:00.857Z,1012.7
2022-10-09T02:55:17.136Z,1012.7
2022-10-09T02:56:33.441Z,1012.7
2022-10-09T02:57:49.741Z,1012.7
2022-10-09T02:59:06.033Z,1012.7
2022-10-09T03:00:22.328Z,1012.8
2022-10-09T03:01:38.615Z,1012.8
2022-10-09T03:02:54.902Z,1012.7
2022-10-09T03:04:11.213Z,1012.8
2022-10-09T03:05:27.489Z,1012.8
2022-10-09T03:06:43.787Z,1012.8
2022-10-09T03:08:00.094Z,1012.8
2022-10-09T03:09:16.373Z,1012.8
2022-10-09T03:10:31.697Z,1012.8
2022-10-09T03:11:47.997Z,1012.8
2022-10-09T03:13:04.277Z,1012.8
2022-10-09T03:14:20.576Z,1012.8
2022-10-09T03:15:36.877Z,1012.8
2022-10-09T03:16:53.165Z,1012.8
2022-10-09T03:18:09.456Z,1012.8
2022-10-09T03:19:25.762Z,1012.8
2022-10-09T03:20:42.058Z,1012.8
2022-10-09T03:21:58.352Z,1012.8
2022-10-09T03:24:30.929Z,1012.9
2022-10-09T03:25:47.228Z,1012.9
2022-10-09T03:27:02.540Z,1012.9
2022-10-09T03:28:18.841Z,1012.9
2022-10-09T03:29:35.130Z,1012.9
2022-10-09T03:30:51.422Z,1012.9
2022-10-09T03:32:07.726Z,1012.9
2022-10-09T03:33:24.019Z,1012.9
2022-10-09T03:34:40.307Z,1012.9
2022-10-09T03:35:56.598Z,1012.9
2022-10-09T03:37:12.891Z,1012.9
2022-10-09T03:38:29.191Z,1013
2022-10-09T03:39:45.488Z,1013
2022-10-09T03:41:01.774Z,1013
2022-10-09T03:42:18.079Z,1013
2022-10-09T03:43:33.376Z,1013
2022-10-09T03:44:49.686Z,1013
2022-10-09T03:46:05.977Z,1013
2022-10-09T03:47:22.267Z,1013
2022-10-09T03:48:38.553Z,1013
2022-10-09T03:49:54.855Z,1013
2022-10-09T03:51:11.159Z,1013.1
2022-10-09T03:52:27.450Z,1013.1
2022-10-09T03:53:43.740Z,1013.1
2022-10-09T03:55:00.025Z,1013
2022-10-09T03:56:16.333Z,1013.1
2022-10-09T03:57:32.619Z,1013.1
2022-10-09T03:58:48.921Z,1013
2022-10-09T04:00:04.239Z,1013
2022-10-09T04:01:20.529Z,1013
2022-10-09T04:02:36.813Z,1013
2022-10-09T04:03:53.121Z,1013
2022-10-09T04:05:09.395Z,1013
2022-10-09T04:06:25.705Z,1013
2022-10-09T04:07:41.992Z,1013
2022-10-09T04:08:58.280Z,1013
2022-10-09T04:10:14.587Z,1013
2022-10-09T04:11:30.875Z,1013
2022-10-09T04:12:47.186Z,1013
2022-10-09T04:15:19.767Z,1013.1
2022-10-09T04:16:35.076Z,1013
2022-10-09T04:17:51.371Z,1013.1
2022-10-09T04:19:07.669Z,1013.1
2022-10-09T04:20:23.961Z,1013.1
2022-10-09T04:21:40.254Z,1013.2
2022-10-09T04:22:56.544Z,1013.1
2022-10-09T04:24:12.836Z,1013.1
2022-10-09T04:25:29.125Z,1013.1
2022-10-09T04:26:45.428Z,1013
2022-10-09T04:28:01.728Z,1013.1
2022-10-09T04:29:18.011Z,1013.1
2022-10-09T04:30:34.303Z,1013.1
2022-10-09T04:31:50.598Z,1013.1
2022-10-09T04:33:05.918Z,1013.1
2022-10-09T04:34:22.221Z,1013.2
2022-10-09T04:35:38.496Z,1013.2
2022-10-09T04:36:54.798Z,1013.2
2022-10-09T04:38:11.092Z,1013.2
2022-10-09T04:39:27.381Z,1013.2
2022-10-09T04:40:42.707Z,1013.2
2022-10-09T04:41:59.000Z,1013.2
2022-10-09T04:43:15.293Z,1013.1
2022-10-09T04:44:31.599Z,1013.2
2022-10-09T04:45:47.878Z,1013.1
2022-10-09T04:47:04.132Z,1013.2
2022-10-09T04:48:20.424Z,1013.2
2022-10-09T04:49:36.673Z,1013.1
2022-10-09T04:50:52.914Z,1013.2
2022-10-09T04:52:09.204Z,1013.2
2022-10-09T04:53:25.494Z,1013.2
2022-10-09T04:54:41.792Z,1013.2
2022-10-09T04:55:58.048Z,1013.2
2022-10-09T04:57:13.299Z,1013.2
2022-10-09T04:58:29.551Z,1013.2
2022-10-09T04:59:45.779Z,1013.2
2022-10-09T05:01:02.036Z,1013.2
2022-10-09T05:02:18.271Z,1013.2
2022-10-09T05:03:34.506Z,1013.2
2022-10-09T05:04:50.739Z,1013.2
2022-10-09T05:06:06.989Z,1013.2
2022-10-09T05:07:23.224Z,1013.1
2022-10-09T05:08:39.481Z,1013.1
2022-10-09T05:09:55.706Z,1013.1
2022-10-09T05:11:11.946Z,1013.2
2022-10-09T05:12:28.197Z,1013.2
2022-10-09T05:13:43.453Z,1013.2
2022-10-09T05:14:59.680Z,1013.1
2022-10-09T05:16:15.924Z,1013.2
2022-10-09T05:17:32.163Z,1013.2
2022-10-09T05:18:48.403Z,1013.1
2022-10-09T05:20:04.654Z,1013.2
2022-10-09T05:21:20.899Z,1013.2
2022-10-09T05:22:37.137Z,1013.2
2022-10-09T05:23:53.373Z,1013.2
2022-10-09T05:25:09.619Z,1013.2
2022-10-09T05:26:25.845Z,1013.2
2022-10-09T05:27:42.105Z,1013.2
2022-10-09T05:28:58.341Z,1013.2
2022-10-09T05:30:13.602Z,1013.2
2022-10-09T05:31:29.840Z,1013.2
2022-10-09T05:32:46.067Z,1013.2
2022-10-09T05:34:02.320Z,1013.2
2022-10-09T05:35:18.563Z,1013.2
2022-10-09T05:36:34.796Z,1013.3
2022-10-09T05:37:51.039Z,1013.3
2022-10-09T05:39:07.271Z,1013.3
2022-10-09T05:40:23.513Z,1013.3
2022-10-09T05:41:39.762Z,1013.3
2022-10-09T05:42:56.005Z,1013.3
2022-10-09T05:44:12.230Z,1013.3
2022-10-09T05:45:28.474Z,1013.4
2022-10-09T05:46:43.745Z,1013.4
2022-10-09T05:47:59.986Z,1013.3
2022-10-09T05:49:16.219Z,1013.4
2022-10-09T05:50:32.461Z,1013.4
2022-10-09T05:51:48.699Z,1013.3
2022-10-09T05:53:04.949Z,1013.3
2022-10-09T05:54:21.171Z,1013.4
2022-10-09T05:55:37.431Z,1013.3
2022-10-09T05:56:53.654Z,1013.4
2022-10-09T05:58:09.909Z,1013.4
2022-10-09T05:59:26.152Z,1013.4
2022-10-09T06:00:42.376Z,1013.3
2022-10-09T06:01:58.613Z,1013.4
2022-10-09T06:03:13.885Z,1013.4
2022-10-09T06:04:30.112Z,1013.4
2022-10-09T06:05:46.353Z,1013.4
2022-10-09T06:07:02.595Z,1013.5
2022-10-09T06:08:18.845Z,1013.5
2022-10-09T06:09:35.086Z,1013.5
2022-10-09T06:10:51.324Z,1013.5
2022-10-09T06:12:07.569Z,1013.5
2022-10-09T06:13:23.803Z,1013.5
2022-10-09T06:14:40.037Z,1013.5
2022-10-09T06:15:56.278Z,1013.5
2022-10-09T06:17:12.526Z,1013.6
2022-10-09T06:18:28.776Z,1013.5
2022-10-09T06:19:44.013Z,1013.5
2022-10-09T06:21:00.254Z,1013.5
2022-10-09T06:22:16.511Z,1013.5
2022-10-09T06:23:32.741Z,1013.5
2022-10-09T06:24:48.975Z,1013.5
2022-10-09T06:26:05.233Z,1013.6
2022-10-09T06:27:21.473Z,1013.5
2022-10-09T06:28:37.699Z,1013.5
2022-10-09T06:29:53.955Z,1013.6
2022-10-09T06:31:10.183Z,1013.6
2022-10-09T06:32:26.430Z,1013.5
2022-10-09T06:33:42.664Z,1013.6
2022-10-09T06:34:58.906Z,1013.5
2022-10-09T06:37:30.404Z,1013.6
2022-10-09T06:38:46.637Z,1013.6
2022-10-09T06:40:02.892Z,1013.7
2022-10-09T06:42:35.376Z,1013.7
2022-10-09T06:43:51.605Z,1013.7
2022-10-09T06:45:07.847Z,1013.7
2022-10-09T06:46:24.089Z,1013.7
2022-10-09T06:47:40.330Z,1013.7
2022-10-09T06:48:56.566Z,1013.7
2022-10-09T06:50:12.802Z,1013.6
2022-10-09T06:51:29.053Z,1013.7
2022-10-09T06:52:44.305Z,1013.7
2022-10-09T06:54:00.542Z,1013.7
2022-10-09T06:55:16.789Z,1013.7
2022-10-09T06:56:33.036Z,1013.7
2022-10-09T06:57:49.265Z,1013.7
2022-10-09T06:59:05.513Z,1013.8
2022-10-09T07:00:21.743Z,1013.8
2022-10-09T07:01:37.976Z,1013.8
2022-10-09T07:02:54.216Z,1013.7
2022-10-09T07:04:10.462Z,1013.7
2022-10-09T07:05:26.702Z,1013.8
2022-10-09T07:06:42.949Z,1013.8
2022-10-09T07:07:59.190Z,1013.8
2022-10-09T07:09:14.445Z,1013.8
2022-10-09T07:10:30.683Z,1013.8
2022-10-09T07:11:46.930Z,1013.8
2022-10-09T07:13:03.155Z,1013.8
2022-10-09T07:14:19.404Z,1013.9
2022-10-09T07:15:35.640Z,1013.8
2022-10-09T07:16:51.872Z,1013.8
2022-10-09T07:18:08.126Z,1013.8
2022-10-09T07:19:24.362Z,1013.9
2022-10-09T07:20:40.600Z,1013.9
2022-10-09T07:21:56.852Z,1013.9
2022-10-09T07:23:13.082Z,1013.9
2022-10-09T07:24:29.316Z,1013.9
2022-10-09T07:25:44.576Z,1013.8
2022-10-09T07:27:00.813Z,1013.8
2022-10-09T07:28:17.054Z,1013.9
2022-10-09T07:29:33.298Z,1013.8
2022-10-09T07:30:49.537Z,1013.8
2022-10-09T07:32:05.774Z,1013.9
2022-10-09T07:33:22.015Z,1013.9
2022-10-09T07:34:38.255Z,1013.9
2022-10-09T07:35:54.501Z,1013.8
2022-10-09T07:37:10.740Z,1013.8
2022-10-09T07:38:26.972Z,1013.8
2022-10-09T07:39:43.218Z,1013.8
2022-10-09T07:40:59.460Z,1013.8
2022-10-09T07:42:14.705Z,1013.8
2022-10-09T07:43:30.962Z,1013.8
2022-10-09T07:44:47.201Z,1013.8
2022-10-09T07:46:03.430Z,1013.9
2022-10-09T07:47:19.686Z,1013.8
2022-10-09T07:48:35.909Z,1013.8
2022-10-09T07:49:52.153Z,1013.9
2022-10-09T07:51:08.400Z,1013.9
2022-10-09T07:52:24.629Z,1013.9
2022-10-09T07:53:40.867Z,1014
2022-10-09T07:54:57.113Z,1014
2022-10-09T07:56:13.357Z,1013.9
2022-10-09T07:57:29.605Z,1013.9
2022-10-09T07:58:44.861Z,1013.9
2022-10-09T08:00:01.095Z,1013.8
2022-10-09T08:01:17.323Z,1013.9
2022-10-09T08:02:33.563Z,1013.9
2022-10-09T08:03:49.803Z,1013.8
2022-10-09T08:05:06.044Z,1013.9
2022-10-09T08:06:22.284Z,1013.9
2022-10-09T08:07:38.534Z,1013.8
2022-10-09T08:08:54.779Z,1013.8
2022-10-09T08:10:11.014Z,1013.8
2022-10-09T08:11:27.247Z,1013.8
2022-10-09T08:12:43.495Z,1013.8
2022-10-09T08:13:59.736Z,1013.8
2022-10-09T08:15:14.986Z,1013.8
2022-10-09T08:16:31.231Z,1013.8
2022-10-09T08:17:47.483Z,1013.8
2022-10-09T08:19:03.713Z,1013.7
2022-10-09T08:20:19.949Z,1013.7
2022-10-09T08:21:36.185Z,1013.7
2022-10-09T08:22:52.439Z,1013.7
2022-10-09T08:24:08.667Z,1013.7
2022-10-09T08:25:24.908Z,1013.7
2022-10-09T08:26:41.155Z,1013.7
2022-10-09T08:27:57.388Z,1013.7
2022-10-09T08:29:13.627Z,1013.7
2022-10-09T08:30:29.885Z,1013.7
2022-10-09T08:31:45.136Z,1013.7
2022-10-09T08:33:01.374Z,1013.7
2022-10-09T08:34:17.610Z,1013.7
2022-10-09T08:35:33.850Z,1013.7
2022-10-09T08:36:50.099Z,1013.7
2022-10-09T08:38:06.343Z,1013.7
2022-10-09T08:39:22.574Z,1013.7
2022-10-09T08:40:38.819Z,1013.7
2022-10-09T08:41:55.049Z,1013.7
2022-10-09T08:43:11.293Z,1013.7
2022-10-09T08:44:27.532Z,1013.7
2022-10-09T08:45:43.785Z,1013.7
2022-10-09T08:47:00.026Z,1013.6
2022-10-09T08:48:15.278Z,1013.6
2022-10-09T08:49:31.523Z,1013.6
2022-10-09T08:50:47.753Z,1013.6
2022-10-09T08:52:03.996Z,1013.6
2022-10-09T08:53:20.244Z,1013.6
2022-10-09T08:54:36.468Z,1013.6
2022-10-09T08:55:51.745Z,1013.6
2022-10-09T08:57:07.977Z,1013.6
2022-10-09T08:58:24.233Z,1013.6
2022-10-09T08:59:40.468Z,1013.6
2022-10-09T09:00:56.705Z,1013.6
2022-10-09T09:02:12.949Z,1013.6
2022-10-09T09:03:29.192Z,1013.6
2022-10-09T09:04:45.430Z,1013.6
2022-10-09T09:06:01.663Z,1013.6
2022-10-09T09:07:17.904Z,1013.5
2022-10-09T09:08:34.148Z,1013.5
2022-10-09T09:09:50.393Z,1013.5
2022-10-09T09:11:06.627Z,1013.5
2022-10-09T09:12:21.883Z,1013.5
2022-10-09T09:13:38.128Z,1013.5
2022-10-09T09:14:54.366Z,1013.4
2022-10-09T09:16:10.612Z,1013.4
2022-10-09T09:17:26.843Z,1013.4
2022-10-09T09:18:43.084Z,1013.4
2022-10-09T09:19:59.330Z,1013.3
2022-10-09T09:21:15.572Z,1013.3
2022-10-09T09:22:31.812Z,1013.3
2022-10-09T09:23:48.047Z,1013.4
2022-10-09T09:25:04.301Z,1013.4
2022-10-09T09:26:20.543Z,1013.3
2022-10-09T09:27:36.785Z,1013.4
2022-10-09T09:28:52.045Z,1013.3
2022-10-09T09:30:08.269Z,1013.3
2022-10-09T09:31:24.531Z,1013.3
2022-10-09T09:32:40.760Z,1013.3
2022-10-09T09:33:57.003Z,1013.3
2022-10-09T09:35:13.249Z,1013.2
2022-10-09T09:36:29.481Z,1013.3
2022-10-09T09:37:45.720Z,1013.3
2022-10-09T09:39:01.974Z,1013.3
2022-10-09T09:40:18.199Z,1013.3
2022-10-09T09:41:34.444Z,1013.2
2022-10-09T09:42:50.680Z,1013.3
2022-10-09T09:44:06.924Z,1013.4
2022-10-09T09:45:22.179Z,1013.5
2022-10-09T09:46:38.433Z,1013.5
2022-10-09T09:47:54.663Z,1013.4
2022-10-09T09:49:10.909Z,1013.4
2022-10-09T09:50:27.155Z,1013.5
2022-10-09T09:51:43.389Z,1013.4
2022-10-09T09:52:59.625Z,1013.4
2022-10-09T09:54:15.872Z,1013.4
2022-10-09T09:55:32.112Z,1013.3
2022-10-09T09:56:48.361Z,1013.3
2022-10-09T09:58:04.591Z,1013.3
2022-10-09T09:59:20.843Z,1013.3
2022-10-09T10:00:37.086Z,1013.2
2022-10-09T10:01:52.328Z,1013.2
2022-10-09T10:03:08.576Z,1013.1
2022-10-09T10:04:24.818Z,1013.2
2022-10-09T10:05:41.068Z,1013.2
2022-10-09T10:06:57.293Z,1013.2
2022-10-09T10:08:13.529Z,1013.1
2022-10-09T10:09:29.785Z,1013
2022-10-09T10:10:46.021Z,1013
2022-10-09T10:12:02.266Z,1013.3
2022-10-09T10:13:18.523Z,1013.2
2022-10-09T10:14:34.750Z,1013
2022-10-09T10:15:50.995Z,1013
2022-10-09T10:17:07.232Z,1013.2
2022-10-09T10:18:22.492Z,1013.2
2022-10-09T10:20:54.973Z,1013
2022-10-09T10:22:11.220Z,1013
2022-10-09T10:23:27.451Z,1013
2022-10-09T10:24:43.693Z,1013.1
2022-10-09T10:25:59.934Z,1012.9
2022-10-09T10:27:16.185Z,1013
2022-10-09T10:28:32.424Z,1013
2022-10-09T10:29:48.658Z,1012.9
2022-10-09T10:31:04.889Z,1012.9
2022-10-09T10:32:21.145Z,1012.8
2022-10-09T10:33:37.382Z,1012.8
2022-10-09T10:34:52.637Z,1012.8
2022-10-09T10:36:08.870Z,1012.8
2022-10-09T10:37:25.126Z,1012.8
2022-10-09T10:38:41.352Z,1012.8
2022-10-09T10:39:57.588Z,1012.8
2022-10-09T10:41:13.836Z,1012.8
2022-10-09T10:42:30.075Z,1012.8
2022-10-09T10:43:46.308Z,1012.7
2022-10-09T10:45:02.550Z,1012.7
2022-10-09T10:46:18.790Z,1012.8
2022-10-09T10:47:35.046Z,1012.7
2022-10-09T10:48:51.273Z,1012.8
2022-10-09T10:50:07.515Z,1012.8
2022-10-09T10:51:22.765Z,1012.7
2022-10-09T10:52:39.022Z,1012.7
2022-10-09T10:53:55.255Z,1012.7
2022-10-09T10:55:11.488Z,1012.7
2022-10-09T10:56:27.736Z,1012.7
2022-10-09T10:57:43.969Z,1012.7
2022-10-09T10:59:00.207Z,1012.7
2022-10-09T11:00:16.462Z,1012.7
2022-10-09T11:01:32.690Z,1012.7
2022-10-09T11:02:48.931Z,1012.7
2022-10-09T11:04:05.169Z,1012.7
2022-10-09T11:05:21.408Z,1012.7
2022-10-09T11:06:37.651Z,1012.7
2022-10-09T11:07:52.913Z,1012.7
2022-10-09T11:09:09.145Z,1012.6
2022-10-09T11:10:25.387Z,1012.7
2022-10-09T11:11:41.622Z,1012.5
2022-10-09T11:12:57.864Z,1012.7
2022-10-09T11:14:14.105Z,1012.6
2022-10-09T11:15:30.343Z,1012.5
2022-10-09T11:16:46.597Z,1012.4
2022-10-09T11:18:02.832Z,1012.4
2022-10-09T11:19:19.073Z,1012.4
2022-10-09T11:20:35.312Z,1012.5
2022-10-09T11:21:51.562Z,1012.5
2022-10-09T11:23:07.787Z,1012.4
2022-10-09T11:24:23.058Z,1012.3
2022-10-09T11:25:39.285Z,1012.2
2022-10-09T11:26:55.534Z,1012.2
2022-10-09T11:28:11.764Z,1012.2
2022-10-09T11:29:28.002Z,1012.2
2022-10-09T11:30:44.254Z,1012.2
2022-10-09T11:32:00.491Z,1012.2
2022-10-09T11:33:16.740Z,1012.1
2022-10-09T11:34:32.981Z,1012.1
2022-10-09T11:35:49.221Z,1012.1
2022-10-09T11:37:05.444Z,1012.1
2022-10-09T11:38:21.685Z,1012.1
2022-10-09T11:39:37.928Z,1012
2022-10-09T11:40:53.193Z,1012
2022-10-09T11:42:09.427Z,1012
2022-10-09T11:43:25.663Z,1012
2022-10-09T11:44:41.909Z,1012
2022-10-09T11:45:58.140Z,1012
2022-10-09T11:47:14.384Z,1012
2022-10-09T11:48:30.622Z,1012
2022-10-09T11:49:46.866Z,1012
2022-10-09T11:51:03.105Z,1011.9
2022-10-09T11:52:19.338Z,1011.9
2022-10-09T11:53:35.585Z,1011.9
2022-10-09T11:54:51.829Z,1011.9
2022-10-09T11:56:08.061Z,1011.8
2022-10-09T11:57:23.316Z,1011.9
2022-10-09T11:58:39.564Z,1011.8
2022-10-09T11:59:55.807Z,1011.8
2022-10-09T12:01:12.046Z,1011.8
2022-10-09T12:02:28.277Z,1011.7
2022-10-09T12:03:44.517Z,1011.7
2022-10-09T12:05:00.754Z,1011.7
2022-10-09T12:06:16.997Z,1011.6
2022-10-09T12:07:33.243Z,1011.6
2022-10-09T12:08:49.484Z,1011.6
2022-10-09T12:10:05.731Z,1011.6
2022-10-09T12:11:21.960Z,1011.7
2022-10-09T12:12:38.209Z,1011.7
2022-10-09T12:13:53.453Z,1011.6
2022-10-09T12:15:09.711Z,1011.6
2022-10-09T12:16:25.948Z,1011.6
2022-10-09T12:17:42.175Z,1011.5
2022-10-09T12:18:58.417Z,1011.6
2022-10-09T12:20:14.665Z,1011.5
2022-10-09T12:21:30.898Z,1011.5
2022-10-09T12:22:47.133Z,1011.5
2022-10-09T12:24:03.372Z,1011.5
2022-10-09T12:25:19.629Z,1011.5
2022-10-09T12:26:35.863Z,1011.5
2022-10-09T12:27:52.093Z,1011.5
2022-10-09T12:29:08.335Z,1011.4
2022-10-09T12:30:23.601Z,1011.5
2022-10-09T12:31:39.840Z,1011.4
2022-10-09T12:32:56.074Z,1011.4
2022-10-09T12:34:12.321Z,1011.4
2022-10-09T12:35:28.561Z,1011.4
2022-10-09T12:36:44.802Z,1011.3
2022-10-09T12:38:01.032Z,1011.3
2022-10-09T12:39:17.289Z,1011.3
2022-10-09T12:40:33.527Z,1011.4
2022-10-09T12:41:49.769Z,1011.3
2022-10-09T12:43:06.008Z,1011.4
2022-10-09T12:44:22.241Z,1011.4
2022-10-09T12:45:38.488Z,1011.4
2022-10-09T12:46:53.750Z,1011.3
2022-10-09T12:48:09.990Z,1011.4
2022-10-09T12:49:26.237Z,1011.3
2022-10-09T12:50:42.468Z,1011.1
2022-10-09T12:51:58.703Z,1011
2022-10-09T12:53:14.941Z,1011.1
2022-10-09T12:54:31.180Z,1011.1
2022-10-09T12:55:47.418Z,1011.1
2022-10-09T12:57:03.664Z,1011.1
2022-10-09T12:58:19.904Z,1011
2022-10-09T12:59:36.149Z,1011.1
2022-10-09T13:00:52.380Z,1011
2022-10-09T13:02:08.624Z,1011
2022-10-09T13:03:23.889Z,1011
2022-10-09T13:04:40.128Z,1010.9
2022-10-09T13:05:56.353Z,1010.9
2022-10-09T13:07:12.609Z,1011
2022-10-09T13:08:28.849Z,1010.9
2022-10-09T13:09:45.082Z,1010.9
2022-10-09T13:11:00.335Z,1010.9
2022-10-09T13:12:16.586Z,1011
2022-10-09T13:13:32.821Z,1011
2022-10-09T13:14:49.063Z,1010.9
2022-10-09T13:16:05.318Z,1010.9
2022-10-09T13:17:21.540Z,1010.9
2022-10-09T13:18:37.796Z,1010.9
2022-10-09T13:19:54.036Z,1010.7
2022-10-09T13:21:10.263Z,1010.7
2022-10-09T13:22:26.512Z,1010.7
2022-10-09T13:23:42.746Z,1010.7
2022-10-09T13:24:58.980Z,1010.7
2022-10-09T13:26:15.219Z,1010.7
2022-10-09T13:27:30.484Z,1010.7
2022-10-09T13:28:46.715Z,1010.7
2022-10-09T13:30:02.956Z,1010.6
2022-10-09T13:31:19.199Z,1010.7
2022-10-09T13:32:35.433Z,1010.6
2022-10-09T13:33:51.672Z,1010.6
2022-10-09T13:35:07.915Z,1010.6
2022-10-09T13:36:24.167Z,1010.6
2022-10-09T13:37:40.409Z,1010.7
2022-10-09T13:38:56.635Z,1010.6
2022-10-09T13:40:12.887Z,1010.7
2022-10-09T13:41:29.125Z,1010.7
2022-10-09T13:42:45.354Z,1010.6
2022-10-09T13:44:00.609Z,1010.6
2022-10-09T13:45:16.849Z,1010.5
2022-10-09T13:46:33.095Z,1010.5
2022-10-09T13:47:49.349Z,1010.5
2022-10-09T13:49:05.569Z,1010.6
2022-10-09T13:50:21.819Z,1010.4
2022-10-09T13:51:38.057Z,1010.4
2022-10-09T13:52:54.295Z,1010.5
2022-10-09T13:54:10.546Z,1010.5
2022-10-09T13:55:26.771Z,1010.4
2022-10-09T13:56:43.014Z,1010.4
2022-10-09T13:57:59.249Z,1010.4
2022-10-09T13:59:15.498Z,1010.4
2022-10-09T14:00:30.763Z,1010.3
2022-10-09T14:01:46.990Z,1010.3
2022-10-09T14:03:03.245Z,1010.3
2022-10-09T14:04:19.475Z,1010.3
2022-10-09T14:05:35.709Z,1010.3
2022-10-09T14:06:51.964Z,1010.3
2022-10-09T14:09:24.431Z,1010.3
2022-10-09T14:10:40.677Z,1010.2
2022-10-09T14:11:56.923Z,1010.3
2022-10-09T14:13:13.157Z,1010.3
2022-10-09T14:14:29.397Z,1010.2
2022-10-09T14:15:45.634Z,1010.2
2022-10-09T14:17:00.887Z,1010.2
2022-10-09T14:18:17.134Z,1010.2
2022-10-09T14:19:33.374Z,1010.2
2022-10-09T14:20:49.614Z,1010.2
2022-10-09T14:22:05.845Z,1010.2
2022-10-09T14:23:22.097Z,1010.1
2022-10-09T14:24:38.335Z,1010.2
2022-10-09T14:25:54.572Z,1010.2
2022-10-09T14:27:10.801Z,1010.1
2022-10-09T14:28:27.059Z,1010.1
2022-10-09T14:29:43.294Z,1010.2
2022-10-09T14:30:59.529Z,1010.1
2022-10-09T14:32:15.764Z,1010
2022-10-09T14:33:31.031Z,1010.1
2022-10-09T14:34:47.263Z,1010
2022-10-09T14:36:03.510Z,1010
2022-10-09T14:37:19.755Z,1010
2022-10-09T14:38:35.984Z,1010
2022-10-09T14:39:52.222Z,1010
2022-10-09T14:41:08.461Z,1009.9
2022-10-09T14:42:24.699Z,1009.9
2022-10-09T14:43:40.940Z,1009.9
2022-10-09T14:44:57.176Z,1009.9
2022-10-09T14:46:13.426Z,1009.9
2022-10-09T14:47:29.668Z,1009.9
2022-10-09T14:48:45.905Z,1009.9
2022-10-09T14:50:01.163Z,1009.9
2022-10-09T14:51:17.392Z,1009.9
2022-10-09T14:52:33.649Z,1009.9
2022-10-09T14:53:49.875Z,1009.8
2022-10-09T14:55:06.129Z,1009.8
2022-10-09T14:56:22.355Z,1009.8
2022-10-09T14:57:38.596Z,1009.8
2022-10-09T14:58:54.844Z,1009.8
2022-10-09T15:00:11.079Z,1009.8
2022-10-09T15:01:27.321Z,1009.8
2022-10-09T15:02:43.551Z,1009.8
2022-10-09T15:03:59.808Z,1009.7
2022-10-09T15:05:16.041Z,1009.8
2022-10-09T15:06:31.294Z,1009.7
2022-10-09T15:07:47.548Z,1009.7
2022-10-09T15:09:03.770Z,1009.8
2022-10-09T15:10:20.016Z,1009.8
2022-10-09T15:11:36.261Z,1009.8
2022-10-09T15:12:52.489Z,1009.8
2022-10-09T15:14:08.730Z,1009.7
2022-10-09T15:15:24.973Z,1009.7
2022-10-09T15:16:41.225Z,1009.8
2022-10-09T15:17:57.459Z,1009.7
2022-10-09T15:19:13.708Z,1009.7
2022-10-09T15:20:29.941Z,1009.7
2022-10-09T15:23:02.406Z,1009.7
2022-10-09T15:24:17.676Z,1009.7
2022-10-09T15:25:33.908Z,1009.7
2022-10-09T15:26:50.146Z,1009.7
2022-10-09T15:28:06.388Z,1009.7
2022-10-09T15:29:22.629Z,1009.6
2022-10-09T15:30:38.863Z,1009.6
2022-10-09T15:31:55.107Z,1009.6
2022-10-09T15:33:11.346Z,1009.6
2022-10-09T15:34:27.599Z,1009.5
2022-10-09T15:35:43.829Z,1009.5
2022-10-09T15:37:00.069Z,1009.6
2022-10-09T15:38:16.309Z,1009.4
2022-10-09T15:39:32.559Z,1009.5
2022-10-09T15:40:47.801Z,1009.5
2022-10-09T15:42:04.062Z,1009.5
2022-10-09T15:43:20.276Z,1009.5
2022-10-09T15:44:36.536Z,1009.5
2022-10-09T15:45:52.766Z,1009.5
2022-10-09T15:47:09.003Z,1009.5
2022-10-09T15:48:25.258Z,1009.5
2022-10-09T15:49:41.478Z,1009.4
2022-10-09T15:50:57.728Z,1009.5
2022-10-09T15:52:13.975Z,1009.5
2022-10-09T15:53:30.209Z,1009.5
2022-10-09T15:54:46.454Z,1009.5
2022-10-09T15:56:02.696Z,1009.4
2022-10-09T15:57:17.946Z,1009.4
2022-10-09T15:58:34.192Z,1009.4
2022-10-09T15:59:50.424Z,1009.4
2022-10-09T16:01:06.662Z,1009.5
2022-10-09T16:02:22.910Z,1009.5
2022-10-09T16:03:39.141Z,1009.4